createdAt,value
2022-10-14T12:46:23.031Z,63.60
2022-10-14T12:48:50.684Z,63.64
2022-10-14T12:51:27.348Z,63.74
2022-10-14T12:54:17.090Z,63.39
2022-10-14T12:56:44.755Z,61.00
2022-10-14T13:04:37.741Z,61.71
2022-10-14T13:06:29.361Z,61.14
2022-10-14T13:08:21.209Z,62.03
2022-10-14T13:10:19.395Z,59.48
2022-10-14T13:15:53.331Z,59.17
2022-10-14T13:17:28.850Z,59.36
2022-10-14T13:19:04.561Z,59.93
2022-10-14T13:29:05.430Z,61.01
2022-10-14T13:30:43.462Z,62.34
2022-10-14T13:32:25.951Z,60.58
2022-10-14T13:40:30.335Z,84.74
2022-10-14T13:43:01.581Z,85.96
2022-10-14T13:44:34.419Z,85.33
2022-10-14T13:46:07.165Z,86.24
2022-10-14T13:47:40.788Z,85.43
2022-10-14T13:50:49.874Z,86.07
2022-10-14T13:52:26.771Z,86.31
2022-10-14T13:53:59.987Z,86.38
2022-10-14T13:55:32.030Z,86.97
2022-10-14T13:58:57.683Z,86.76
2022-10-14T14:00:45.591Z,86.84
2022-10-14T14:02:19.252Z,86.59
2022-10-14T14:03:51.888Z,86.49
2022-10-14T14:05:23.751Z,86.56
2022-10-14T14:07:23.245Z,86.30
2022-10-14T14:08:51.208Z,86.83
2022-10-14T14:10:24.238Z,86.86
2022-10-14T14:11:57.412Z,87.80
2022-10-14T14:13:49.867Z,86.30
2022-10-14T14:15:26.438Z,86.72
2022-10-14T14:16:59.155Z,86.63
2022-10-14T14:18:43.447Z,87.09
2022-10-14T14:20:28.718Z,87.35
2022-10-14T14:22:06.292Z,86.55
2022-10-14T14:23:48.186Z,86.69
2022-10-14T14:25:34.846Z,87.22
2022-10-14T14:27:10.925Z,87.21
2022-10-14T14:28:42.724Z,87.10
2022-10-14T14:30:21.188Z,86.44
2022-10-14T14:32:09.499Z,87.32
2022-10-14T14:33:42.929Z,86.35
2022-10-14T14:35:16.989Z,85.87
2022-10-14T14:36:55.469Z,86.59
2022-10-14T14:38:36.200Z,86.00
2022-10-14T14:40:14.746Z,86.15
2022-10-14T14:41:50.164Z,86.77
2022-10-14T14:43:25.391Z,86.19
2022-10-14T14:44:59.771Z,86.00
2022-10-14T14:46:34.023Z,86.16
2022-10-14T14:48:07.143Z,86.29
2022-10-14T14:49:38.942Z,87.14
2022-10-14T14:51:11.792Z,86.99
2022-10-14T14:52:43.675Z,86.35
2022-10-14T14:54:17.011Z,87.10
2022-10-14T14:56:02.044Z,86.77
2022-10-14T14:57:33.781Z,86.39
2022-10-14T14:59:07.654Z,86.91
2022-10-14T15:00:46.252Z,87.60
2022-10-14T15:02:19.316Z,87.71
2022-10-14T15:04:13.587Z,87.78
2022-10-14T15:05:50.840Z,86.83
2022-10-14T15:07:24.679Z,87.81
2022-10-14T15:08:57.375Z,87.37
2022-10-14T15:10:32.149Z,87.34
2022-10-14T15:12:06.069Z,87.86
2022-10-14T15:13:55.393Z,87.00
2022-10-14T15:15:30.235Z,87.86
2022-10-14T15:17:29.065Z,87.83
2022-10-14T15:19:28.623Z,87.83
2022-10-14T15:21:15.293Z,87.73
2022-10-14T15:22:49.565Z,87.44
2022-10-14T15:24:23.215Z,87.89
2022-10-14T15:25:57.331Z,87.85
2022-10-14T15:28:01.087Z,87.57
2022-10-14T15:29:33.001Z,87.88
2022-10-14T15:31:05.799Z,87.86
2022-10-14T15:32:37.847Z,87.88
2022-10-14T15:34:21.044Z,87.75
2022-10-14T15:35:57.019Z,87.96
2022-10-14T15:37:28.823Z,87.26
2022-10-14T15:39:01.479Z,88.00
2022-10-14T15:40:35.328Z,87.03
2022-10-14T15:42:11.917Z,86.95
2022-10-14T15:43:46.418Z,87.80
2022-10-14T15:45:18.875Z,87.63
2022-10-14T15:47:13.430Z,88.02
2022-10-14T15:48:51.841Z,87.70
2022-10-14T15:50:27.079Z,87.85
2022-10-14T15:52:04.373Z,87.60
2022-10-14T15:53:36.506Z,88.22
2022-10-14T15:55:19.666Z,88.58
2022-10-14T15:56:51.829Z,88.77
2022-10-14T15:58:26.523Z,88.52
2022-10-14T15:59:58.297Z,88.59
2022-10-14T16:01:30.451Z,87.84
2022-10-14T16:03:03.822Z,88.83
2022-10-14T16:04:39.276Z,87.79
2022-10-14T16:06:19.468Z,88.58
2022-10-14T16:07:54.113Z,89.29
2022-10-14T16:09:27.792Z,88.24
2022-10-14T16:11:00.106Z,89.61
2022-10-14T16:12:31.905Z,89.50
2022-10-14T16:14:03.636Z,89.54
2022-10-14T16:15:45.127Z,89.86
2022-10-14T16:17:18.945Z,90.15
2022-10-14T16:18:50.839Z,89.66
2022-10-14T16:20:22.620Z,90.01
2022-10-14T16:21:55.740Z,90.67
2022-10-14T16:23:33.315Z,89.39
2022-10-14T16:25:07.271Z,89.39
2022-10-14T16:26:40.096Z,89.66
2022-10-14T16:28:11.909Z,90.15
2022-10-14T16:29:43.603Z,89.49
2022-10-14T16:31:15.618Z,89.08
2022-10-14T16:32:47.354Z,90.53
2022-10-14T16:34:19.804Z,91.33
2022-10-14T16:35:53.544Z,90.51
2022-10-14T16:37:26.777Z,90.87
2022-10-14T16:39:00.462Z,90.09
2022-10-14T16:40:36.591Z,89.76
2022-10-14T16:42:09.291Z,91.44
2022-10-14T16:43:41.140Z,89.71
2022-10-14T16:45:13.092Z,89.44
2022-10-14T16:47:03.616Z,89.77
2022-10-14T16:48:41.476Z,89.36
2022-10-14T16:50:18.915Z,89.43
2022-10-14T16:51:50.618Z,89.31
2022-10-14T16:53:41.955Z,89.59
2022-10-14T16:55:13.685Z,89.06
2022-10-14T16:56:54.272Z,88.77
2022-10-14T16:58:37.342Z,89.77
2022-10-14T17:00:13.274Z,89.86
2022-10-14T17:01:57.562Z,89.50
2022-10-14T17:03:30.532Z,89.64
2022-10-14T17:05:02.260Z,88.80
2022-10-14T17:06:34.091Z,88.98
2022-10-14T17:08:05.976Z,89.79
2022-10-14T17:09:39.769Z,90.17
2022-10-14T17:11:11.551Z,89.87
2022-10-14T17:12:43.257Z,89.13
2022-10-14T17:14:17.363Z,89.80
2022-10-14T17:15:49.160Z,90.49
2022-10-14T17:17:23.733Z,90.18
2022-10-14T17:18:55.596Z,89.65
2022-10-14T17:20:27.473Z,88.75
2022-10-14T17:22:02.174Z,89.84
2022-10-14T17:23:36.838Z,89.73
2022-10-14T17:25:10.525Z,90.95
2022-10-14T17:26:42.304Z,90.00
2022-10-14T17:28:14.037Z,89.29
2022-10-14T17:29:45.739Z,90.69
2022-10-14T17:31:20.917Z,88.72
2022-10-14T17:32:52.645Z,89.45
2022-10-14T17:34:24.437Z,90.04
2022-10-14T17:35:57.187Z,91.98
2022-10-14T17:37:30.789Z,92.01
2022-10-14T17:39:04.829Z,92.06
2022-10-14T17:40:38.070Z,91.93
2022-10-14T17:42:11.790Z,90.43
2022-10-14T17:43:43.540Z,90.44
2022-10-14T17:45:15.842Z,91.71
2022-10-14T17:46:47.573Z,90.50
2022-10-14T17:48:21.464Z,90.35
2022-10-14T17:49:54.074Z,91.38
2022-10-14T17:51:26.542Z,91.55
2022-10-14T17:52:59.123Z,91.23
2022-10-14T17:54:31.186Z,91.46
2022-10-14T17:56:04.966Z,90.27
2022-10-14T17:57:37.340Z,91.78
2022-10-14T17:59:12.018Z,91.51
2022-10-14T18:00:43.845Z,90.88
2022-10-14T18:02:17.017Z,90.80
2022-10-14T18:03:48.856Z,91.92
2022-10-14T18:05:20.858Z,91.77
2022-10-14T18:06:54.211Z,90.65
2022-10-14T18:08:26.005Z,92.83
2022-10-14T18:09:57.862Z,92.04
2022-10-14T18:11:56.055Z,91.75
2022-10-14T18:13:24.450Z,91.63
2022-10-14T18:14:57.073Z,91.80
2022-10-14T18:16:31.668Z,92.42
2022-10-14T18:18:11.402Z,91.65
2022-10-14T18:19:46.176Z,90.28
2022-10-14T18:21:23.580Z,89.90
2022-10-14T18:22:55.264Z,90.85
2022-10-14T18:24:27.334Z,90.68
2022-10-14T18:26:06.279Z,90.75
2022-10-14T18:27:44.650Z,90.25
2022-10-14T18:29:16.340Z,90.38
2022-10-14T18:30:48.046Z,89.92
2022-10-14T18:32:23.126Z,90.79
2022-10-14T18:33:55.625Z,92.66
2022-10-14T18:35:27.365Z,91.62
2022-10-14T18:37:01.538Z,91.96
2022-10-14T18:38:33.245Z,91.38
2022-10-14T18:40:05.655Z,90.10
2022-10-14T18:41:37.477Z,90.57
2022-10-14T18:43:10.585Z,91.48
2022-10-14T18:44:42.400Z,91.21
2022-10-14T18:46:15.144Z,90.54
2022-10-14T18:47:46.889Z,91.78
2022-10-14T18:49:18.623Z,91.67
2022-10-14T18:50:57.417Z,91.52
2022-10-14T18:52:36.451Z,91.93
2022-10-14T18:54:10.124Z,91.85
2022-10-14T18:55:44.598Z,92.28
2022-10-14T18:57:17.354Z,91.93
2022-10-14T18:58:54.288Z,92.64
2022-10-14T19:00:26.927Z,93.16
2022-10-14T19:01:58.798Z,92.50
2022-10-14T19:03:32.674Z,92.49
2022-10-14T19:05:07.464Z,92.86
2022-10-14T19:06:39.190Z,92.53
2022-10-14T19:08:11.481Z,92.69
2022-10-14T19:09:43.401Z,92.59
2022-10-14T19:11:20.259Z,92.76
2022-10-14T19:12:55.038Z,92.40
2022-10-14T19:14:29.283Z,92.39
2022-10-14T19:16:01.587Z,92.52
2022-10-14T19:17:33.625Z,92.65
2022-10-14T19:19:11.810Z,92.98
2022-10-14T19:20:45.422Z,93.83
2022-10-14T19:22:19.721Z,94.15
2022-10-14T19:23:51.671Z,94.44
2022-10-14T19:25:23.417Z,93.18
2022-10-14T19:26:56.010Z,93.03
2022-10-14T19:28:29.040Z,93.74
2022-10-14T19:30:02.381Z,93.39
2022-10-14T19:31:35.247Z,94.37
2022-10-14T19:33:07.024Z,94.09
2022-10-14T19:34:40.107Z,93.21
2022-10-14T19:36:16.126Z,94.17
2022-10-14T19:37:56.727Z,93.12
2022-10-14T19:39:33.813Z,92.82
2022-10-14T19:41:09.181Z,92.92
2022-10-14T19:42:40.934Z,93.33
2022-10-14T19:44:12.896Z,92.98
2022-10-14T19:45:48.220Z,92.09
2022-10-14T19:47:22.248Z,92.28
2022-10-14T19:48:55.134Z,92.73
2022-10-14T19:50:26.836Z,92.13
2022-10-14T19:51:58.580Z,92.63
2022-10-14T19:55:02.101Z,91.84
2022-10-14T19:56:33.918Z,92.53
2022-10-14T19:58:05.815Z,91.81
2022-10-14T19:59:37.634Z,92.33
2022-10-14T20:01:11.466Z,91.63
2022-10-14T20:02:43.221Z,92.48
2022-10-14T20:04:14.969Z,93.13
2022-10-14T20:05:46.699Z,92.91
2022-10-14T20:07:18.370Z,92.47
2022-10-14T20:08:50.295Z,93.67
2022-10-14T20:10:21.997Z,93.85
2022-10-14T20:11:53.637Z,93.58
2022-10-14T20:13:25.352Z,92.77
2022-10-14T20:16:43.990Z,92.66
2022-10-14T20:18:18.105Z,92.70
2022-10-14T20:20:01.273Z,92.99
2022-10-14T20:21:33.306Z,92.50
2022-10-14T20:23:07.296Z,93.39
2022-10-14T20:24:46.829Z,92.99
2022-10-14T20:26:21.871Z,92.36
2022-10-14T20:27:53.664Z,92.93
2022-10-14T20:29:31.209Z,92.96
2022-10-14T20:31:07.167Z,92.44
2022-10-14T20:32:42.548Z,92.97
2022-10-14T20:34:17.151Z,92.07
2022-10-14T20:35:51.384Z,92.98
2022-10-14T20:37:27.249Z,94.29
2022-10-14T20:39:02.253Z,94.45
2022-10-14T20:40:36.624Z,94.07
2022-10-14T20:42:08.566Z,94.09
2022-10-14T20:43:42.989Z,94.07
2022-10-14T20:45:14.733Z,94.13
2022-10-14T20:46:48.163Z,93.72
2022-10-14T20:48:23.191Z,93.16
2022-10-14T20:50:01.653Z,93.29
2022-10-14T20:51:33.389Z,94.24
2022-10-14T20:53:07.671Z,94.29
2022-10-14T20:54:41.605Z,94.96
2022-10-14T20:56:13.397Z,94.25
2022-10-14T20:57:45.097Z,94.98
2022-10-14T20:59:16.814Z,94.28
2022-10-14T21:01:20.774Z,92.99
2022-10-14T21:05:39.338Z,93.92
2022-10-14T21:07:14.340Z,93.55
2022-10-14T21:08:46.156Z,93.78
2022-10-14T21:10:17.926Z,94.23
2022-10-14T21:11:49.682Z,94.04
2022-10-14T21:13:21.563Z,94.08
2022-10-14T21:14:53.244Z,94.32
2022-10-14T21:16:25.829Z,93.98
2022-10-14T21:17:57.602Z,94.32
2022-10-14T21:19:29.260Z,93.78
2022-10-14T21:21:02.494Z,93.19
2022-10-14T21:22:34.219Z,93.10
2022-10-14T21:24:06.434Z,93.60
2022-10-14T21:25:38.168Z,94.57
2022-10-14T21:27:09.916Z,93.90
2022-10-14T21:28:41.650Z,93.79
2022-10-14T21:30:14.112Z,93.80
2022-10-14T21:31:45.901Z,94.85
2022-10-14T21:33:17.572Z,95.08
2022-10-14T21:34:51.155Z,94.35
2022-10-14T21:36:24.318Z,94.31
2022-10-14T21:37:55.965Z,94.36
2022-10-14T21:39:27.614Z,93.48
2022-10-14T21:41:00.008Z,94.33
2022-10-14T21:42:34.035Z,94.63
2022-10-14T21:44:05.812Z,94.42
2022-10-14T21:45:37.539Z,94.90
2022-10-14T21:47:09.353Z,94.21
2022-10-14T21:48:41.408Z,93.83
2022-10-14T21:50:13.069Z,93.86
2022-10-14T21:51:46.167Z,94.03
2022-10-14T21:53:17.847Z,93.66
2022-10-14T21:54:49.630Z,94.00
2022-10-14T21:56:21.443Z,94.68
2022-10-14T21:57:53.070Z,94.70
2022-10-14T21:59:24.799Z,95.03
2022-10-14T22:01:00.901Z,94.56
2022-10-14T22:02:32.640Z,95.09
2022-10-14T22:04:05.241Z,94.70
2022-10-14T22:05:36.915Z,94.85
2022-10-14T22:07:10.727Z,94.00
2022-10-14T22:08:43.181Z,93.65
2022-10-14T22:10:33.889Z,93.81
2022-10-14T22:12:06.431Z,93.81
2022-10-14T22:13:38.064Z,94.10
2022-10-14T22:15:10.136Z,94.50
2022-10-14T22:16:41.817Z,95.21
2022-10-14T22:18:13.520Z,94.18
2022-10-14T22:19:45.166Z,94.72
2022-10-14T22:21:18.351Z,93.76
2022-10-14T22:22:51.434Z,94.17
2022-10-14T22:24:23.105Z,94.47
2022-10-14T22:25:54.980Z,93.65
2022-10-14T22:27:26.667Z,93.16
2022-10-14T22:28:59.129Z,93.01
2022-10-14T22:30:30.995Z,93.83
2022-10-14T22:32:02.676Z,93.05
2022-10-14T22:33:35.125Z,94.31
2022-10-14T22:35:08.062Z,94.29
2022-10-14T22:36:40.029Z,94.18
2022-10-14T22:38:13.141Z,94.01
2022-10-14T22:39:44.817Z,94.60
2022-10-14T22:41:16.803Z,94.33
2022-10-14T22:42:51.349Z,94.19
2022-10-14T22:44:23.332Z,95.40
2022-10-14T22:45:59.272Z,93.99
2022-10-14T22:47:32.141Z,94.30
2022-10-14T22:49:04.075Z,94.46
2022-10-14T22:50:35.744Z,94.70
2022-10-14T22:52:07.418Z,94.05
2022-10-14T22:53:40.787Z,93.38
2022-10-14T22:55:12.497Z,93.24
2022-10-14T22:56:44.181Z,94.16
2022-10-14T22:58:15.816Z,93.86
2022-10-14T22:59:47.536Z,93.52
2022-10-14T23:01:21.229Z,93.29
2022-10-14T23:02:53.021Z,93.31
2022-10-14T23:04:24.648Z,93.46
2022-10-14T23:05:59.681Z,93.55
2022-10-14T23:07:31.348Z,93.36
2022-10-14T23:09:04.465Z,92.78
2022-10-14T23:10:37.133Z,93.06
2022-10-14T23:12:08.780Z,92.58
2022-10-14T23:13:40.432Z,92.54
2022-10-14T23:15:12.147Z,93.82
2022-10-14T23:16:43.788Z,93.39
2022-10-14T23:18:15.396Z,93.07
2022-10-14T23:19:47.027Z,92.98
2022-10-14T23:21:19.601Z,94.31
2022-10-14T23:22:51.224Z,93.36
2022-10-14T23:24:25.041Z,94.15
2022-10-14T23:25:56.686Z,93.55
2022-10-14T23:27:31.593Z,93.83
2022-10-14T23:29:06.868Z,92.78
2022-10-14T23:30:38.563Z,93.10
2022-10-14T23:32:10.219Z,92.91
2022-10-14T23:33:41.977Z,93.92
2022-10-14T23:35:13.805Z,93.21
2022-10-14T23:36:45.470Z,93.22
2022-10-14T23:38:17.148Z,92.94
2022-10-14T23:39:50.125Z,93.84
2022-10-14T23:41:22.205Z,93.53
2022-10-14T23:42:53.885Z,94.03
2022-10-14T23:44:25.533Z,93.48
2022-10-14T23:45:57.212Z,93.83
2022-10-14T23:47:28.876Z,94.16
2022-10-14T23:49:07.532Z,93.53
2022-10-14T23:50:52.519Z,93.34
2022-10-14T23:52:24.279Z,93.77
2022-10-14T23:53:55.961Z,94.32
2022-10-14T23:55:29.034Z,93.77
2022-10-14T23:57:00.741Z,93.62
2022-10-14T23:58:32.790Z,94.30
